createdAt,value
2023-03-31T00:00:12.101Z,85.01
2023-03-31T00:04:03.896Z,85.28
2023-03-31T00:07:28.125Z,85.50
2023-03-31T00:10:52.112Z,85.74
2023-03-31T00:14:18.032Z,86.08
2023-03-31T00:17:43.615Z,86.56
2023-03-31T00:21:14.643Z,86.44
2023-03-31T00:24:38.750Z,86.61
2023-03-31T00:28:02.566Z,86.11
2023-03-31T00:31:28.250Z,85.25
2023-03-31T00:34:53.271Z,85.50
2023-03-31T00:38:17.098Z,86.25
2023-03-31T00:41:41.263Z,86.38
2023-03-31T00:45:17.445Z,85.89
2023-03-31T00:48:47.595Z,86.21
2023-03-31T00:52:18.193Z,86.45
2023-03-31T00:55:54.277Z,86.81
2023-03-31T00:59:18.872Z,86.63
2023-03-31T01:02:51.648Z,86.89
2023-03-31T01:06:20.055Z,87.02
2023-03-31T01:09:47.447Z,87.04
2023-03-31T01:13:13.717Z,86.97
2023-03-31T01:16:40.130Z,87.08
2023-03-31T01:20:37.742Z,87.22
2023-03-31T01:24:35.869Z,87.42
2023-03-31T01:28:21.732Z,87.68
2023-03-31T01:32:08.595Z,87.50
2023-03-31T01:35:58.252Z,87.14
2023-03-31T01:39:22.185Z,87.19
2023-03-31T01:42:46.320Z,87.30
2023-03-31T01:46:33.091Z,87.52
2023-03-31T01:49:59.695Z,87.70
2023-03-31T01:53:43.472Z,87.99
2023-03-31T01:57:16.701Z,88.22
2023-03-31T02:00:46.911Z,88.23
2023-03-31T02:04:23.171Z,88.13
2023-03-31T02:07:58.418Z,88.10
2023-03-31T02:11:23.858Z,88.12
2023-03-31T02:14:51.804Z,88.19
2023-03-31T02:18:20.471Z,88.36
2023-03-31T02:21:44.439Z,88.51
2023-03-31T02:25:13.034Z,88.43
2023-03-31T02:28:37.501Z,88.42
2023-03-31T02:32:14.026Z,88.48
2023-03-31T02:35:37.926Z,88.55
2023-03-31T02:39:08.348Z,88.55
2023-03-31T02:42:32.438Z,88.55
2023-03-31T02:45:56.460Z,88.56
2023-03-31T02:49:21.589Z,88.45
2023-03-31T02:53:02.101Z,88.35
2023-03-31T02:56:51.610Z,88.21
2023-03-31T03:00:16.490Z,88.11
2023-03-31T03:03:41.697Z,88.15
2023-03-31T03:07:26.768Z,88.24
2023-03-31T03:11:03.041Z,88.22
2023-03-31T03:14:49.249Z,88.27
2023-03-31T03:18:13.737Z,88.30
2023-03-31T03:21:37.557Z,88.44
2023-03-31T03:25:02.111Z,88.52
2023-03-31T03:28:25.957Z,88.45
2023-03-31T03:31:49.814Z,88.51
2023-03-31T03:35:14.445Z,88.55
2023-03-31T03:38:38.345Z,88.68
2023-03-31T03:42:02.254Z,88.90
2023-03-31T03:45:28.458Z,88.88
2023-03-31T03:48:53.474Z,88.93
2023-03-31T03:52:18.599Z,89.47
2023-03-31T03:55:42.559Z,89.51
2023-03-31T03:59:06.448Z,89.63
2023-03-31T04:02:30.277Z,89.57
2023-03-31T04:05:54.496Z,89.54
2023-03-31T04:09:18.489Z,89.49
2023-03-31T04:12:42.562Z,89.49
2023-03-31T04:16:07.095Z,89.55
2023-03-31T04:19:31.235Z,89.57
2023-03-31T04:22:55.203Z,89.61
2023-03-31T04:26:27.745Z,89.59
2023-03-31T04:29:54.915Z,89.56
2023-03-31T04:33:19.141Z,89.43
2023-03-31T04:36:47.492Z,89.41
2023-03-31T04:40:12.543Z,89.38
2023-03-31T04:43:36.557Z,89.28
2023-03-31T04:47:03.403Z,89.16
2023-03-31T04:50:27.345Z,89.00
2023-03-31T04:53:51.229Z,88.82
2023-03-31T04:57:15.079Z,88.69
2023-03-31T05:00:39.089Z,88.53
2023-03-31T05:04:06.701Z,88.43
2023-03-31T05:07:31.761Z,88.27
2023-03-31T05:10:55.563Z,87.91
2023-03-31T05:14:19.358Z,87.87
2023-03-31T05:17:43.216Z,87.73
2023-03-31T05:21:15.974Z,87.51
2023-03-31T05:24:39.768Z,87.29
2023-03-31T05:28:04.200Z,87.04
2023-03-31T05:31:30.615Z,86.86
2023-03-31T05:34:57.226Z,86.70
2023-03-31T05:38:21.591Z,86.50
2023-03-31T05:41:45.487Z,86.31
2023-03-31T05:45:10.376Z,85.91
2023-03-31T05:48:34.238Z,85.51
2023-03-31T05:51:58.177Z,85.29
2023-03-31T05:55:22.479Z,84.95
2023-03-31T05:58:46.496Z,84.62
2023-03-31T06:02:14.601Z,84.27
2023-03-31T06:05:41.824Z,83.78
2023-03-31T06:09:06.580Z,83.32
2023-03-31T06:12:30.468Z,82.94
2023-03-31T06:15:59.414Z,81.84
2023-03-31T06:19:24.911Z,81.49
2023-03-31T06:22:48.754Z,80.75
2023-03-31T06:26:17.797Z,79.93
2023-03-31T06:29:41.841Z,79.60
2023-03-31T06:33:06.000Z,78.69
2023-03-31T06:36:30.918Z,78.04
2023-03-31T06:39:54.806Z,77.90
2023-03-31T06:43:18.665Z,77.05
2023-03-31T06:46:42.622Z,76.35
2023-03-31T06:50:07.229Z,75.95
2023-03-31T06:53:31.305Z,75.21
2023-03-31T06:56:55.291Z,73.57
2023-03-31T07:00:22.353Z,73.00
2023-03-31T07:03:46.928Z,72.40
2023-03-31T07:07:11.270Z,71.96
2023-03-31T07:10:35.147Z,71.31
2023-03-31T07:13:58.903Z,70.76
2023-03-31T07:17:25.476Z,71.04
2023-03-31T07:20:51.122Z,70.62
2023-03-31T07:24:15.069Z,70.47
2023-03-31T07:27:39.461Z,70.15
2023-03-31T07:31:03.711Z,69.45
2023-03-31T07:34:27.847Z,69.36
2023-03-31T07:37:52.361Z,68.29
2023-03-31T07:41:26.378Z,67.70
2023-03-31T07:44:50.640Z,68.07
2023-03-31T07:48:14.932Z,67.94
2023-03-31T07:51:38.927Z,68.15
2023-03-31T07:55:03.706Z,68.10
2023-03-31T07:58:27.592Z,67.43
2023-03-31T08:01:51.506Z,66.92
2023-03-31T08:05:18.484Z,67.33
2023-03-31T08:08:43.336Z,67.17
2023-03-31T08:12:07.906Z,66.43
2023-03-31T08:15:31.905Z,63.91
2023-03-31T08:18:55.955Z,62.64
2023-03-31T08:22:19.761Z,60.76
2023-03-31T08:25:43.746Z,60.87
2023-03-31T08:29:07.659Z,61.46
2023-03-31T08:32:35.400Z,60.61
2023-03-31T08:36:03.650Z,60.77
2023-03-31T08:39:27.978Z,59.89
2023-03-31T08:42:56.194Z,59.11
2023-03-31T08:46:21.289Z,59.67
2023-03-31T08:49:51.082Z,60.29
2023-03-31T08:53:21.098Z,60.50
2023-03-31T08:56:50.219Z,61.01
2023-03-31T09:00:18.921Z,62.05
2023-03-31T09:04:12.871Z,61.77
2023-03-31T09:07:36.966Z,60.32
2023-03-31T09:11:09.886Z,58.53
2023-03-31T09:14:46.474Z,58.71
2023-03-31T09:18:16.140Z,59.08
2023-03-31T09:21:44.981Z,60.13
2023-03-31T09:25:13.939Z,60.56
2023-03-31T09:28:41.501Z,61.21
2023-03-31T09:32:23.866Z,61.38
2023-03-31T09:35:49.286Z,59.93
2023-03-31T09:39:16.189Z,59.16
2023-03-31T09:42:40.060Z,58.94
2023-03-31T09:46:14.610Z,58.33
2023-03-31T09:49:40.124Z,58.43
2023-03-31T09:53:06.597Z,57.01
2023-03-31T09:56:54.203Z,57.01
2023-03-31T10:00:21.203Z,57.17
2023-03-31T10:03:56.201Z,56.59
2023-03-31T10:07:25.607Z,56.65
2023-03-31T10:10:57.138Z,56.01
2023-03-31T10:14:28.518Z,54.41
2023-03-31T10:17:55.247Z,53.47
2023-03-31T10:21:38.717Z,53.81
2023-03-31T10:25:22.204Z,53.96
2023-03-31T10:28:46.536Z,54.15
2023-03-31T10:32:19.604Z,53.71
2023-03-31T10:35:43.471Z,53.90
2023-03-31T10:39:09.005Z,53.80
2023-03-31T10:42:33.527Z,52.90
2023-03-31T10:46:01.347Z,52.05
2023-03-31T10:49:28.109Z,51.15
2023-03-31T10:52:51.991Z,51.05
2023-03-31T10:56:28.939Z,51.22
2023-03-31T10:59:59.541Z,50.69
2023-03-31T11:04:06.200Z,50.76
2023-03-31T11:07:39.396Z,51.07
2023-03-31T11:11:20.579Z,51.43
2023-03-31T11:15:06.598Z,51.39
2023-03-31T11:18:59.561Z,50.70
2023-03-31T11:22:45.163Z,48.73
2023-03-31T11:26:22.506Z,48.05
2023-03-31T11:30:09.287Z,48.89
2023-03-31T11:34:00.912Z,48.25
2023-03-31T11:38:01.858Z,47.86
2023-03-31T11:41:51.811Z,48.29
2023-03-31T11:45:55.277Z,48.36
2023-03-31T11:49:25.966Z,47.53
2023-03-31T11:53:02.130Z,47.33
2023-03-31T11:56:34.504Z,47.76
2023-03-31T12:00:10.459Z,47.14
2023-03-31T12:03:56.122Z,48.04
2023-03-31T12:07:29.570Z,49.57
2023-03-31T12:11:01.805Z,50.49
2023-03-31T12:14:35.884Z,51.69
2023-03-31T12:18:27.123Z,52.72
2023-03-31T12:22:25.886Z,53.40
2023-03-31T12:25:59.312Z,54.22
2023-03-31T12:29:32.486Z,55.19
2023-03-31T12:33:08.354Z,55.25
2023-03-31T12:36:56.493Z,56.04
2023-03-31T12:40:31.124Z,56.24
2023-03-31T12:44:26.479Z,57.70
2023-03-31T12:48:14.083Z,58.18
2023-03-31T12:52:03.346Z,58.49
2023-03-31T12:55:28.981Z,58.06
2023-03-31T12:58:52.853Z,57.39
2023-03-31T13:02:16.926Z,57.42
2023-03-31T13:05:48.762Z,57.64
2023-03-31T13:09:15.787Z,58.04
2023-03-31T13:12:39.739Z,57.95
2023-03-31T13:16:03.932Z,57.94
2023-03-31T13:19:37.532Z,57.13
2023-03-31T13:23:20.658Z,56.57
2023-03-31T13:26:48.583Z,56.51
2023-03-31T13:30:38.530Z,55.94
2023-03-31T13:34:04.653Z,55.70
2023-03-31T13:37:47.728Z,56.20
2023-03-31T13:41:49.467Z,55.48
2023-03-31T13:45:51.051Z,55.45
2023-03-31T13:49:42.625Z,54.91
2023-03-31T13:53:34.421Z,54.49
2023-03-31T13:57:17.051Z,54.52
2023-03-31T14:00:54.786Z,54.23
2023-03-31T14:04:38.602Z,54.14
2023-03-31T14:08:14.994Z,53.37
2023-03-31T14:11:40.695Z,53.84
2023-03-31T14:15:07.905Z,53.87
2023-03-31T14:18:41.993Z,54.56
2023-03-31T14:22:32.371Z,55.36
2023-03-31T14:26:14.415Z,55.19
2023-03-31T14:30:20.087Z,55.45
2023-03-31T14:34:31.058Z,55.36
2023-03-31T14:38:35.093Z,54.77
2023-03-31T14:42:36.133Z,54.14
2023-03-31T14:46:36.322Z,53.38
2023-03-31T14:50:34.061Z,52.26
2023-03-31T14:54:34.007Z,52.22
2023-03-31T14:58:52.055Z,52.95
2023-03-31T15:02:52.064Z,52.91
2023-03-31T15:06:50.092Z,52.99
2023-03-31T15:11:02.424Z,53.05
2023-03-31T15:15:16.041Z,52.98
2023-03-31T15:19:17.031Z,52.47
2023-03-31T15:23:15.027Z,52.95
2023-03-31T15:27:29.828Z,52.77
2023-03-31T15:31:34.194Z,52.89
2023-03-31T15:35:39.974Z,52.85
2023-03-31T15:39:43.995Z,53.13
2023-03-31T15:43:58.981Z,53.26
2023-03-31T15:48:08.039Z,53.72
2023-03-31T15:52:08.931Z,54.41
2023-03-31T15:56:08.973Z,54.43
2023-03-31T16:00:06.920Z,54.81
2023-03-31T16:04:08.925Z,54.89
2023-03-31T16:08:06.949Z,55.40
2023-03-31T16:12:07.977Z,55.53
2023-03-31T16:16:09.080Z,55.97
2023-03-31T16:20:21.970Z,56.36
2023-03-31T16:24:19.886Z,57.05
2023-03-31T16:28:17.908Z,57.14
2023-03-31T16:32:23.958Z,57.61
2023-03-31T16:36:23.930Z,57.90
2023-03-31T16:40:22.900Z,58.38
2023-03-31T16:44:20.868Z,58.73
2023-03-31T16:48:18.950Z,59.07
2023-03-31T16:52:17.028Z,59.85
2023-03-31T16:56:15.912Z,60.34
2023-03-31T17:00:13.883Z,60.57
2023-03-31T17:04:11.899Z,61.00
2023-03-31T17:08:11.094Z,61.33
2023-03-31T17:12:08.877Z,61.69
2023-03-31T17:16:18.566Z,63.25
2023-03-31T17:20:20.891Z,66.32
2023-03-31T17:24:21.830Z,65.52
2023-03-31T17:28:19.829Z,65.33
2023-03-31T17:32:19.932Z,65.41
2023-03-31T17:36:17.824Z,65.35
2023-03-31T17:40:15.822Z,64.85
2023-03-31T17:44:14.858Z,65.40
2023-03-31T17:48:16.460Z,64.37
2023-03-31T17:52:13.852Z,64.50
2023-03-31T17:56:11.837Z,64.59
2023-03-31T18:00:09.924Z,64.08
2023-03-31T18:04:10.866Z,64.08
2023-03-31T18:08:08.744Z,64.12
2023-03-31T18:12:06.826Z,63.64
2023-03-31T18:16:05.885Z,63.60
2023-03-31T18:20:04.921Z,63.51
2023-03-31T18:24:02.922Z,63.87
2023-03-31T18:28:01.248Z,63.87
2023-03-31T18:31:58.981Z,63.97
2023-03-31T18:35:56.853Z,65.90
2023-03-31T18:39:54.815Z,66.67
2023-03-31T18:43:53.795Z,66.72
2023-03-31T18:47:51.819Z,66.43
2023-03-31T18:51:50.737Z,67.56
2023-03-31T18:55:48.780Z,67.19
2023-03-31T18:59:46.758Z,66.91
2023-03-31T19:03:45.718Z,66.97
2023-03-31T19:07:43.800Z,67.41
2023-03-31T19:11:41.700Z,67.35
2023-03-31T19:15:40.961Z,67.61
2023-03-31T19:19:38.716Z,68.02
2023-03-31T19:23:36.787Z,68.25
2023-03-31T19:27:35.106Z,68.19
2023-03-31T19:31:32.829Z,67.24
2023-03-31T19:35:33.747Z,67.56
2023-03-31T19:39:33.833Z,68.60
2023-03-31T19:43:34.680Z,68.96
2023-03-31T19:47:32.664Z,69.08
2023-03-31T19:51:30.672Z,69.27
2023-03-31T19:55:28.842Z,68.74
2023-03-31T19:59:26.690Z,68.39
2023-03-31T20:03:25.128Z,69.08
2023-03-31T20:07:22.761Z,69.05
2023-03-31T20:11:22.891Z,70.25
2023-03-31T20:15:20.612Z,70.35
2023-03-31T20:19:22.753Z,70.43
2023-03-31T20:23:20.620Z,70.50
2023-03-31T20:27:18.702Z,71.07
2023-03-31T20:31:28.715Z,71.79
2023-03-31T20:35:26.762Z,73.54
2023-03-31T20:39:25.868Z,73.95
2023-03-31T20:43:24.637Z,74.67
2023-03-31T20:47:22.768Z,74.61
2023-03-31T20:51:22.801Z,74.76
2023-03-31T20:55:20.556Z,75.49
2023-03-31T20:59:20.648Z,76.19
2023-03-31T21:03:18.631Z,76.37
2023-03-31T21:07:16.617Z,76.87
2023-03-31T21:11:16.624Z,76.73
2023-03-31T21:15:14.609Z,77.10
2023-03-31T21:19:13.559Z,76.88
2023-03-31T21:23:11.627Z,76.97
2023-03-31T21:27:09.667Z,76.99
2023-03-31T21:31:12.768Z,77.09
2023-03-31T21:35:18.632Z,77.54
2023-03-31T21:39:17.631Z,77.44
2023-03-31T21:43:15.613Z,77.44
2023-03-31T21:47:13.570Z,77.40
2023-03-31T21:51:12.531Z,77.99
2023-03-31T21:55:10.520Z,77.71
2023-03-31T21:59:08.551Z,76.92
2023-03-31T22:03:22.780Z,77.26
2023-03-31T22:07:27.491Z,78.04
2023-03-31T22:11:29.502Z,78.11
2023-03-31T22:15:27.509Z,78.09
2023-03-31T22:19:27.549Z,78.10
2023-03-31T22:23:27.575Z,78.44
2023-03-31T22:27:25.522Z,78.82
2023-03-31T22:31:23.485Z,78.57
2023-03-31T22:35:22.472Z,78.69
2023-03-31T22:39:20.492Z,78.96
2023-03-31T22:43:18.468Z,78.75
2023-03-31T22:47:16.491Z,78.91
2023-03-31T22:51:18.515Z,78.55
2023-03-31T22:55:18.663Z,78.61
2023-03-31T22:59:17.476Z,78.55
2023-03-31T23:03:17.549Z,78.55
2023-03-31T23:07:15.482Z,78.72
2023-03-31T23:11:14.411Z,78.97
2023-03-31T23:15:12.463Z,79.10
2023-03-31T23:19:11.588Z,79.07
2023-03-31T23:23:09.620Z,79.02
2023-03-31T23:27:07.398Z,79.15
2023-03-31T23:31:09.474Z,79.29
2023-03-31T23:35:07.450Z,79.50
2023-03-31T23:39:06.563Z,79.38
2023-03-31T23:43:04.426Z,79.39
2023-03-31T23:47:02.428Z,79.47
2023-03-31T23:51:00.376Z,79.63
2023-03-31T23:55:00.952Z,79.66
2023-03-31T23:58:58.343Z,80.17
